Time,TemperatureF,DewpointF,PressureIn,WindDirection,WindDirectionDegrees,WindSpeedMPH,WindSpeedGustMPH,Humidity,HourlyPrecipIn,Conditions,Clouds,dailyrainin,SoftwareType,DateUTC
2013-10-30 00:11:00,28.2,27.7,29.61,North,0,1.7,-999.0,98,-99.99,,,0.00,Acu-Link.com,2013-10-30 06:11:00,
2013-10-30 00:26:00,26.4,25.9,29.59,East,90,2.2,-999.0,98,-99.99,,,0.00,Acu-Link.com,2013-10-30 06:26:00,
2013-10-30 00:41:00,26.1,25.6,29.61,NNE,22,1.7,-999.0,98,-99.99,,,0.00,Acu-Link.com,2013-10-30 06:41:00,
2013-10-30 00:56:00,25.3,24.8,29.60,ESE,112,2.2,-999.0,98,-99.99,,,0.00,Acu-Link.com,2013-10-30 06:56:00,
2013-10-30 01:12:00,24.8,24.3,29.60,NNE,22,2.7,-999.0,98,-99.99,,,0.00,Acu-Link.com,2013-10-30 07:12:00,
2013-10-30 01:27:00,26.1,25.6,29.61,NE,45,2.7,-999.0,98,-99.99,,,0.00,Acu-Link.com,2013-10-30 07:27:00,
2013-10-30 01:42:00,25.5,25.0,29.61,North,0,0.0,-999.0,98,-99.99,,,0.00,Acu-Link.com,2013-10-30 07:42:00,
2013-10-30 01:57:00,25.0,24.5,29.61,South,180,0.0,-999.0,98,-99.99,,,0.00,Acu-Link.com,2013-10-30 07:57:00,
2013-10-30 02:12:00,24.1,23.6,29.61,NNE,22,0.0,-999.0,98,-99.99,,,0.00,Acu-Link.com,2013-10-30 08:12:00,
2013-10-30 02:27:00,23.9,23.4,29.62,NNE,22,0.0,-999.0,98,-99.99,,,0.00,Acu-Link.com,2013-10-30 08:27:00,
2013-10-30 02:42:00,23.0,22.5,29.62,SW,225,0.0,-999.0,98,-99.99,,,0.00,Acu-Link.com,2013-10-30 08:42:00,
2013-10-30 02:57:00,23.2,22.7,29.62,SSW,202,0.0,-999.0,98,-99.99,,,0.00,Acu-Link.com,2013-10-30 08:57:00,
2013-10-30 03:13:00,21.7,21.2,29.63,NW,315,2.7,-999.0,98,-99.99,,,0.00,Acu-Link.com,2013-10-30 09:13:00,
2013-10-30 03:28:00,20.3,19.8,29.63,NE,45,2.2,-999.0,98,-99.99,,,0.00,Acu-Link.com,2013-10-30 09:28:00,
2013-10-30 03:43:00,19.8,19.3,29.63,NE,45,2.2,-999.0,98,-99.99,,,0.00,Acu-Link.com,2013-10-30 09:43:00,
2013-10-30 03:58:00,19.2,18.7,29.63,NE,45,2.2,-999.0,98,-99.99,,,0.00,Acu-Link.com,2013-10-30 09:58:00,
2013-10-30 04:14:00,18.1,17.6,29.62,WSW,247,0.0,-999.0,98,-99.99,,,0.00,Acu-Link.com,2013-10-30 10:14:00,
2013-10-30 04:29:00,18.0,17.5,29.63,NW,315,0.0,-999.0,98,-99.99,,,0.00,Acu-Link.com,2013-10-30 10:29:00,
2013-10-30 04:44:00,18.1,17.6,29.63,NNE,22,0.0,-999.0,98,-99.99,,,0.00,Acu-Link.com,2013-10-30 10:44:00,
2013-10-30 04:59:00,17.6,17.1,29.64,ENE,67,3.2,-999.0,98,-99.99,,,0.00,Acu-Link.com,2013-10-30 10:59:00,
2013-10-30 05:15:00,18.0,17.5,29.64,NNW,337,2.2,-999.0,98,-99.99,,,0.00,Acu-Link.com,2013-10-30 11:15:00,
2013-10-30 05:30:00,17.6,17.1,29.64,East,90,0.0,-999.0,98,-99.99,,,0.00,Acu-Link.com,2013-10-30 11:30:00,
2013-10-30 05:45:00,16.2,15.7,29.65,South,180,0.0,-999.0,98,-99.99,,,0.00,Acu-Link.com,2013-10-30 11:45:00,
2013-10-30 06:00:00,14.4,13.9,29.65,NNW,337,0.0,-999.0,98,-99.99,,,0.00,Acu-Link.com,2013-10-30 12:00:00,
2013-10-30 06:15:00,14.0,13.5,29.65,SSW,202,0.0,-999.0,98,-99.99,,,0.00,Acu-Link.com,2013-10-30 12:15:00,
2013-10-30 06:31:00,13.8,13.3,29.66,North,0,0.0,-999.0,98,-99.99,,,0.00,Acu-Link.com,2013-10-30 12:31:00,
2013-10-30 06:46:00,14.7,14.2,29.65,NW,315,0.0,-999.0,98,-99.99,,,0.00,Acu-Link.com,2013-10-30 12:46:00,
2013-10-30 07:01:00,14.2,13.7,29.66,WNW,292,0.0,-999.0,98,-99.99,,,0.00,Acu-Link.com,2013-10-30 13:01:00,
2013-10-30 07:17:00,14.2,13.7,29.66,ESE,112,0.0,-999.0,98,-99.99,,,0.00,Acu-Link.com,2013-10-30 13:17:00,
2013-10-30 07:32:00,14.0,13.5,29.66,NNW,337,0.0,-999.0,98,-99.99,,,0.00,Acu-Link.com,2013-10-30 13:32:00,
2013-10-30 07:47:00,14.2,13.7,29.66,East,90,0.0,-999.0,98,-99.99,,,0.00,Acu-Link.com,2013-10-30 13:47:00,
2013-10-30 08:02:00,14.9,14.4,29.66,ESE,112,0.0,-999.0,98,-99.99,,,0.00,Acu-Link.com,2013-10-30 14:02:00,
2013-10-30 08:17:00,17.8,17.3,29.68,SE,135,0.0,-999.0,98,-99.99,,,0.00,Acu-Link.com,2013-10-30 14:17:00,
2013-10-30 08:33:00,18.0,17.5,29.68,NE,45,0.0,-999.0,98,-99.99,,,0.00,Acu-Link.com,2013-10-30 14:33:00,
2013-10-30 08:48:00,20.1,19.6,29.69,ESE,112,0.0,-999.0,98,-99.99,,,0.00,Acu-Link.com,2013-10-30 14:48:00,
2013-10-30 09:03:00,21.6,21.1,29.68,South,180,0.0,-999.0,98,-99.99,,,0.00,Acu-Link.com,2013-10-30 15:03:00,
2013-10-30 09:18:00,26.1,25.6,29.69,South,180,0.0,-999.0,98,-99.99,,,0.00,Acu-Link.com,2013-10-30 15:18:00,
2013-10-30 09:34:00,30.9,29.6,29.68,SSE,157,0.0,-999.0,95,-99.99,,,0.00,Acu-Link.com,2013-10-30 15:34:00,
2013-10-30 09:49:00,34.3,28.8,29.68,North,0,0.0,-999.0,80,-99.99,,,0.00,Acu-Link.com,2013-10-30 15:49:00,
2013-10-30 10:04:00,29.5,25.8,29.68,East,90,0.0,-999.0,86,-99.99,,,0.00,Acu-Link.com,2013-10-30 16:04:00,
2013-10-30 10:22:00,30.6,26.1,29.67,ESE,112,0.0,-999.0,83,-99.99,,,0.00,Acu-Link.com,2013-10-30 16:22:00,
2013-10-30 10:38:00,32.5,26.1,29.66,ESE,112,0.0,-999.0,77,-99.99,,,0.00,Acu-Link.com,2013-10-30 16:38:00,
2013-10-30 10:53:00,32.0,27.1,29.66,NE,45,0.0,-999.0,82,-99.99,,,0.00,Acu-Link.com,2013-10-30 16:53:00,
2013-10-30 11:08:00,34.7,30.1,29.65,SSE,157,1.7,-999.0,83,-99.99,,,0.00,Acu-Link.com,2013-10-30 17:08:00,
2013-10-30 11:24:00,36.0,30.1,29.65,ESE,112,2.7,-999.0,79,-99.99,,,0.01,Acu-Link.com,2013-10-30 17:24:00,
2013-10-30 11:39:00,36.5,30.6,29.64,NE,45,2.2,-999.0,79,-99.99,,,0.04,Acu-Link.com,2013-10-30 17:39:00,
2013-10-30 11:54:00,38.8,32.9,29.63,SSE,157,4.2,-999.0,79,-99.99,,,0.05,Acu-Link.com,2013-10-30 17:54:00,
2013-10-30 12:10:00,38.5,32.6,29.64,SSW,202,2.2,-999.0,79,-99.99,,,0.06,Acu-Link.com,2013-10-30 18:10:00,
2013-10-30 12:25:00,37.4,29.9,29.61,SSE,157,3.2,-999.0,74,-99.99,,,0.06,Acu-Link.com,2013-10-30 18:25:00,
2013-10-30 12:40:00,39.2,30.3,29.60,SSW,202,3.7,-999.0,70,-99.99,,,0.06,Acu-Link.com,2013-10-30 18:40:00,
2013-10-30 12:55:00,40.1,30.4,29.59,SSW,202,1.7,-999.0,68,-99.99,,,0.06,Acu-Link.com,2013-10-30 18:55:00,
2013-10-30 13:11:00,39.4,28.6,29.59,SSW,202,3.2,-999.0,65,-99.99,,,0.06,Acu-Link.com,2013-10-30 19:11:00,
2013-10-30 13:26:00,40.6,27.8,29.58,WNW,292,4.2,-999.0,60,-99.99,,,0.06,Acu-Link.com,2013-10-30 19:26:00,
2013-10-30 13:41:00,41.5,29.5,29.57,SW,225,9.9,-999.0,62,-99.99,,,0.06,Acu-Link.com,2013-10-30 19:41:00,
2013-10-30 13:57:00,38.8,30.6,29.57,West,270,2.7,-999.0,72,-99.99,,,0.06,Acu-Link.com,2013-10-30 19:57:00,
2013-10-30 14:12:00,39.9,30.2,29.57,NE,45,5.8,-999.0,68,-99.99,,,0.06,Acu-Link.com,2013-10-30 20:12:00,
2013-10-30 14:27:00,37.2,30.7,29.56,ENE,67,4.2,-999.0,77,-99.99,,,0.06,Acu-Link.com,2013-10-30 20:27:00,
2013-10-30 14:42:00,37.2,30.3,29.56,North,0,5.3,-999.0,76,-99.99,,,0.06,Acu-Link.com,2013-10-30 20:42:00,
2013-10-30 14:57:00,39.6,31.0,29.56,NE,45,6.3,-999.0,71,-99.99,,,0.06,Acu-Link.com,2013-10-30 20:57:00,
2013-10-30 15:12:00,37.9,29.4,29.56,SSE,157,2.2,-999.0,71,-99.99,,,0.06,Acu-Link.com,2013-10-30 21:12:00,
2013-10-30 15:28:00,39.6,29.6,29.56,SSW,202,2.7,-999.0,67,-99.99,,,0.06,Acu-Link.com,2013-10-30 21:28:00,
2013-10-30 15:43:00,39.0,29.3,29.56,NE,45,7.8,-999.0,68,-99.99,,,0.06,Acu-Link.com,2013-10-30 21:43:00,
2013-10-30 15:59:00,38.3,28.7,29.56,NW,315,5.8,-999.0,68,-99.99,,,0.06,Acu-Link.com,2013-10-30 21:59:00,
2013-10-30 16:14:00,38.1,28.5,29.55,SW,225,2.2,-999.0,68,-99.99,,,0.06,Acu-Link.com,2013-10-30 22:14:00,
2013-10-30 16:29:00,38.5,29.2,29.55,SW,225,3.2,-999.0,69,-99.99,,,0.06,Acu-Link.com,2013-10-30 22:29:00,
2013-10-30 16:44:00,38.8,28.8,29.57,SSW,202,4.2,-999.0,67,-99.99,,,0.06,Acu-Link.com,2013-10-30 22:44:00,
2013-10-30 16:59:00,38.7,29.4,29.56,SW,225,5.8,-999.0,69,-99.99,,,0.06,Acu-Link.com,2013-10-30 22:59:00,
2013-10-30 17:15:00,37.9,29.0,29.56,South,180,4.7,-999.0,70,-99.99,,,0.06,Acu-Link.com,2013-10-30 23:15:00,
2013-10-30 17:30:00,36.1,28.3,29.58,West,270,3.7,-999.0,73,-99.99,,,0.06,Acu-Link.com,2013-10-30 23:30:00,
2013-10-30 17:45:00,35.6,29.1,29.57,WSW,247,2.7,-999.0,77,-99.99,,,0.06,Acu-Link.com,2013-10-30 23:45:00,
2013-10-30 18:00:00,33.6,28.1,29.59,South,180,3.7,-999.0,80,-99.99,,,0.06,Acu-Link.com,2013-10-31 00:00:00,
2013-10-30 18:15:00,32.0,27.4,29.59,South,180,3.7,-999.0,83,-99.99,,,0.06,Acu-Link.com,2013-10-31 00:15:00,
2013-10-30 18:30:00,31.3,27.0,29.58,WSW,247,0.0,-999.0,84,-99.99,,,0.06,Acu-Link.com,2013-10-31 00:30:00,
2013-10-30 18:45:00,31.1,26.8,29.60,South,180,2.7,-999.0,84,-99.99,,,0.06,Acu-Link.com,2013-10-31 00:45:00,
2013-10-30 19:01:00,31.1,28.2,29.61,SSW,202,4.2,-999.0,89,-99.99,,,0.06,Acu-Link.com,2013-10-31 01:01:00,
2013-10-30 19:16:00,30.4,29.4,29.60,SW,225,2.7,-999.0,96,-99.99,,,0.06,Acu-Link.com,2013-10-31 01:16:00,
2013-10-30 19:31:00,29.8,29.3,29.60,SW,225,4.7,-999.0,98,-99.99,,,0.06,Acu-Link.com,2013-10-31 01:31:00,
2013-10-30 19:46:00,28.8,28.3,29.61,SW,225,4.2,-999.0,98,-99.99,,,0.06,Acu-Link.com,2013-10-31 01:46:00,
2013-10-30 20:01:00,27.5,27.0,29.62,SSW,202,2.7,-999.0,98,-99.99,,,0.06,Acu-Link.com,2013-10-31 02:01:00,
2013-10-30 20:16:00,27.7,27.2,29.62,SSW,202,1.1,-999.0,98,-99.99,,,0.06,Acu-Link.com,2013-10-31 02:16:00,
2013-10-30 20:41:00,27.9,27.4,29.60,SSW,202,2.7,-999.0,98,-99.99,,,0.06,Acu-Link.com,2013-10-31 02:41:00,
2013-10-30 21:00:00,29.1,28.6,29.62,West,270,2.2,-999.0,98,-99.99,,,0.06,Acu-Link.com,2013-10-31 03:00:00,
2013-10-30 21:21:00,29.3,28.8,29.60,South,180,1.7,-999.0,98,-99.99,,,0.06,Acu-Link.com,2013-10-31 03:21:00,
2013-10-30 21:38:00,29.3,27.8,29.61,WSW,247,2.2,-999.0,94,-99.99,,,0.06,Acu-Link.com,2013-10-31 03:38:00,
2013-10-30 21:53:00,29.3,26.5,29.61,SSW,202,4.2,-999.0,89,-99.99,,,0.06,Acu-Link.com,2013-10-31 03:53:00,
2013-10-30 22:08:00,29.5,25.6,29.61,SSW,202,0.0,-999.0,85,-99.99,,,0.06,Acu-Link.com,2013-10-31 04:08:00,
2013-10-30 22:23:00,29.7,25.8,29.61,SW,225,0.0,-999.0,85,-99.99,,,0.06,Acu-Link.com,2013-10-31 04:23:00,
2013-10-30 22:38:00,29.7,26.3,29.62,SW,225,0.0,-999.0,87,-99.99,,,0.06,Acu-Link.com,2013-10-31 04:38:00,
2013-10-30 22:53:00,29.8,25.9,29.62,NNE,22,2.2,-999.0,85,-99.99,,,0.06,Acu-Link.com,2013-10-31 04:53:00,
2013-10-30 23:08:00,30.0,26.3,29.62,NNE,22,4.7,-999.0,86,-99.99,,,0.06,Acu-Link.com,2013-10-31 05:08:00,
2013-10-30 23:23:00,29.5,26.4,29.62,NNW,337,4.2,-999.0,88,-99.99,,,0.06,Acu-Link.com,2013-10-31 05:23:00,
2013-10-30 23:39:00,29.3,26.2,29.61,South,180,0.0,-999.0,88,-99.99,,,0.06,Acu-Link.com,2013-10-31 05:39:00,
2013-10-30 23:54:00,27.5,25.2,29.61,WSW,247,0.0,-999.0,91,-99.99,,,0.06,Acu-Link.com,2013-10-31 05:54:00,